sensor_id;sensor_type;location;lat;lon;timestamp;temperature;humidity
4596;DHT22;2310;49.978;8.742;2023-04-01T00:02:09;12.00;99.90
4596;DHT22;2310;49.978;8.742;2023-04-01T00:06:13;12.00;99.90
4596;DHT22;2310;49.978;8.742;2023-04-01T00:10:15;12.00;99.90
4596;DHT22;2310;49.978;8.742;2023-04-01T00:14:16;11.90;99.90
4596;DHT22;2310;49.978;8.742;2023-04-01T00:18:17;11.90;99.90
4596;DHT22;2310;49.978;8.742;2023-04-01T00:22:18;11.90;99.90
4596;DHT22;2310;49.978;8.742;2023-04-01T00:26:20;12.00;99.90
4596;DHT22;2310;49.978;8.742;2023-04-01T00:30:22;11.90;99.90
4596;DHT22;2310;49.978;8.742;2023-04-01T00:34:23;11.90;99.90
4596;DHT22;2310;49.978;8.742;2023-04-01T00:38:24;11.90;99.90
4596;DHT22;2310;49.978;8.742;2023-04-01T00:42:26;11.90;99.90
4596;DHT22;2310;49.978;8.742;2023-04-01T00:46:27;11.80;99.90
4596;DHT22;2310;49.978;8.742;2023-04-01T00:50:28;11.90;99.90
4596;DHT22;2310;49.978;8.742;2023-04-01T00:54:32;11.90;99.90
4596;DHT22;2310;49.978;8.742;2023-04-01T00:58:36;11.90;99.90
4596;DHT22;2310;49.978;8.742;2023-04-01T01:02:43;12.00;99.90
4596;DHT22;2310;49.978;8.742;2023-04-01T01:10:59;12.00;99.90
4596;DHT22;2310;49.978;8.742;2023-04-01T01:19:33;11.90;99.90
4596;DHT22;2310;49.978;8.742;2023-04-01T01:27:49;12.00;99.90
4596;DHT22;2310;49.978;8.742;2023-04-01T01:31:52;11.90;99.90
4596;DHT22;2310;49.978;8.742;2023-04-01T01:35:55;11.90;99.90
4596;DHT22;2310;49.978;8.742;2023-04-01T01:40:04;12.00;99.90
4596;DHT22;2310;49.978;8.742;2023-04-01T01:44:07;11.90;99.90
4596;DHT22;2310;49.978;8.742;2023-04-01T01:48:10;11.80;99.90
4596;DHT22;2310;49.978;8.742;2023-04-01T01:52:12;11.80;99.90
4596;DHT22;2310;49.978;8.742;2023-04-01T01:56:13;11.80;99.90
4596;DHT22;2310;49.978;8.742;2023-04-01T02:00:16;11.80;99.90
4596;DHT22;2310;49.978;8.742;2023-04-01T02:04:18;11.90;99.90
4596;DHT22;2310;49.978;8.742;2023-04-01T02:08:34;11.90;99.90
4596;DHT22;2310;49.978;8.742;2023-04-01T02:12:35;11.90;99.90
4596;DHT22;2310;49.978;8.742;2023-04-01T02:16:48;11.90;99.90
4596;DHT22;2310;49.978;8.742;2023-04-01T02:20:49;11.90;99.90
4596;DHT22;2310;49.978;8.742;2023-04-01T02:24:53;11.90;99.90
4596;DHT22;2310;49.978;8.742;2023-04-01T02:28:56;12.00;99.90
4596;DHT22;2310;49.978;8.742;2023-04-01T02:32:58;11.90;99.90
4596;DHT22;2310;49.978;8.742;2023-04-01T02:37:00;12.00;99.90
4596;DHT22;2310;49.978;8.742;2023-04-01T02:41:02;11.90;99.90
4596;DHT22;2310;49.978;8.742;2023-04-01T02:45:05;11.80;99.90
4596;DHT22;2310;49.978;8.742;2023-04-01T02:49:07;11.90;99.90
4596;DHT22;2310;49.978;8.742;2023-04-01T02:53:08;11.80;99.90
4596;DHT22;2310;49.978;8.742;2023-04-01T02:57:10;11.90;99.90
4596;DHT22;2310;49.978;8.742;2023-04-01T03:01:11;11.90;99.90
4596;DHT22;2310;49.978;8.742;2023-04-01T03:05:13;11.70;99.90
4596;DHT22;2310;49.978;8.742;2023-04-01T03:09:14;11.70;99.90
4596;DHT22;2310;49.978;8.742;2023-04-01T03:17:32;11.80;99.90
4596;DHT22;2310;49.978;8.742;2023-04-01T03:21:33;11.80;99.90
4596;DHT22;2310;49.978;8.742;2023-04-01T03:25:34;11.80;99.90
4596;DHT22;2310;49.978;8.742;2023-04-01T03:29:36;11.70;99.90
4596;DHT22;2310;49.978;8.742;2023-04-01T03:33:37;11.80;99.90
4596;DHT22;2310;49.978;8.742;2023-04-01T03:37:39;11.70;99.90
4596;DHT22;2310;49.978;8.742;2023-04-01T03:41:40;11.70;99.90
4596;DHT22;2310;49.978;8.742;2023-04-01T03:45:49;11.70;99.90
4596;DHT22;2310;49.978;8.742;2023-04-01T03:49:51;11.90;99.90
4596;DHT22;2310;49.978;8.742;2023-04-01T03:53:52;11.90;99.90
4596;DHT22;2310;49.978;8.742;2023-04-01T03:57:53;11.90;99.90
4596;DHT22;2310;49.978;8.742;2023-04-01T04:01:54;11.90;99.90
4596;DHT22;2310;49.978;8.742;2023-04-01T04:05:55;11.80;99.90
4596;DHT22;2310;49.978;8.742;2023-04-01T04:09:57;11.80;99.90
4596;DHT22;2310;49.978;8.742;2023-04-01T04:13:59;11.70;99.90
4596;DHT22;2310;49.978;8.742;2023-04-01T04:18:00;11.70;99.90
4596;DHT22;2310;49.978;8.742;2023-04-01T04:22:01;11.60;99.90
4596;DHT22;2310;49.978;8.742;2023-04-01T04:26:05;11.80;99.90
4596;DHT22;2310;49.978;8.742;2023-04-01T04:30:07;11.80;99.90
4596;DHT22;2310;49.978;8.742;2023-04-01T04:34:09;11.70;99.90
4596;DHT22;2310;49.978;8.742;2023-04-01T04:38:10;11.80;99.90
4596;DHT22;2310;49.978;8.742;2023-04-01T04:42:12;11.70;99.90
4596;DHT22;2310;49.978;8.742;2023-04-01T04:46:13;11.70;99.90
4596;DHT22;2310;49.978;8.742;2023-04-01T04:50:14;11.50;99.90
4596;DHT22;2310;49.978;8.742;2023-04-01T04:54:15;11.80;99.90
4596;DHT22;2310;49.978;8.742;2023-04-01T04:58:17;11.80;99.90
4596;DHT22;2310;49.978;8.742;2023-04-01T05:02:18;11.80;99.90
4596;DHT22;2310;49.978;8.742;2023-04-01T05:06:20;11.70;99.90
4596;DHT22;2310;49.978;8.742;2023-04-01T05:10:23;11.70;99.90
4596;DHT22;2310;49.978;8.742;2023-04-01T05:14:24;11.70;99.90
4596;DHT22;2310;49.978;8.742;2023-04-01T05:18:25;11.80;99.90
4596;DHT22;2310;49.978;8.742;2023-04-01T05:22:27;11.80;99.90
4596;DHT22;2310;49.978;8.742;2023-04-01T05:26:28;11.70;99.90
4596;DHT22;2310;49.978;8.742;2023-04-01T05:30:29;11.80;99.90
4596;DHT22;2310;49.978;8.742;2023-04-01T05:34:30;11.80;99.90
4596;DHT22;2310;49.978;8.742;2023-04-01T05:38:32;11.80;99.90
4596;DHT22;2310;49.978;8.742;2023-04-01T05:42:33;11.80;99.90
4596;DHT22;2310;49.978;8.742;2023-04-01T05:46:36;11.80;99.90
4596;DHT22;2310;49.978;8.742;2023-04-01T05:50:40;11.80;99.90
4596;DHT22;2310;49.978;8.742;2023-04-01T05:54:42;11.70;99.90
4596;DHT22;2310;49.978;8.742;2023-04-01T05:58:46;11.60;99.90
4596;DHT22;2310;49.978;8.742;2023-04-01T06:02:47;11.70;99.90
4596;DHT22;2310;49.978;8.742;2023-04-01T06:06:48;11.60;99.90
4596;DHT22;2310;49.978;8.742;2023-04-01T06:15:39;11.60;99.90
4596;DHT22;2310;49.978;8.742;2023-04-01T06:24:43;11.60;99.90
4596;DHT22;2310;49.978;8.742;2023-04-01T06:32:59;11.40;99.90
4596;DHT22;2310;49.978;8.742;2023-04-01T06:37:08;11.30;99.90
4596;DHT22;2310;49.978;8.742;2023-04-01T06:41:36;11.40;99.90
4596;DHT22;2310;49.978;8.742;2023-04-01T06:45:44;11.40;99.90
4596;DHT22;2310;49.978;8.742;2023-04-01T06:54:17;11.50;99.90
4596;DHT22;2310;49.978;8.742;2023-04-01T06:58:24;11.60;99.90
4596;DHT22;2310;49.978;8.742;2023-04-01T07:02:35;11.60;99.90
4596;DHT22;2310;49.978;8.742;2023-04-01T07:11:03;11.70;99.90
4596;DHT22;2310;49.978;8.742;2023-04-01T07:15:16;11.60;99.90
4596;DHT22;2310;49.978;8.742;2023-04-01T07:23:40;11.70;99.90
4596;DHT22;2310;49.978;8.742;2023-04-01T07:27:43;11.70;99.90
4596;DHT22;2310;49.978;8.742;2023-04-01T07:32:03;11.70;99.90
4596;DHT22;2310;49.978;8.742;2023-04-01T07:36:10;11.60;99.90
4596;DHT22;2310;49.978;8.742;2023-04-01T07:40:32;11.60;99.90
4596;DHT22;2310;49.978;8.742;2023-04-01T07:44:42;11.60;99.90
4596;DHT22;2310;49.978;8.742;2023-04-01T08:06:04;12.10;99.90
4596;DHT22;2310;49.978;8.742;2023-04-01T08:22:40;12.30;99.90
4596;DHT22;2310;49.978;8.742;2023-04-01T08:26:45;12.30;99.90
4596;DHT22;2310;49.978;8.742;2023-04-01T08:35:18;12.40;99.90
4596;DHT22;2310;49.978;8.742;2023-04-01T08:39:32;12.30;99.90
4596;DHT22;2310;49.978;8.742;2023-04-01T08:48:07;12.20;99.90
4596;DHT22;2310;49.978;8.742;2023-04-01T08:57:04;12.20;99.90
4596;DHT22;2310;49.978;8.742;2023-04-01T09:01:24;12.20;99.90
4596;DHT22;2310;49.978;8.742;2023-04-01T09:09:48;12.30;99.90
4596;DHT22;2310;49.978;8.742;2023-04-01T09:35:38;12.70;99.90
4596;DHT22;2310;49.978;8.742;2023-04-01T09:39:47;12.80;99.90
4596;DHT22;2310;49.978;8.742;2023-04-01T09:48:09;12.70;99.90
4596;DHT22;2310;49.978;8.742;2023-04-01T09:52:23;12.80;99.90
4596;DHT22;2310;49.978;8.742;2023-04-01T10:09:59;12.80;99.90
4596;DHT22;2310;49.978;8.742;2023-04-01T10:14:25;12.80;99.90
4596;DHT22;2310;49.978;8.742;2023-04-01T10:27:43;13.00;99.90
4596;DHT22;2310;49.978;8.742;2023-04-01T10:54:01;13.40;99.90
4596;DHT22;2310;49.978;8.742;2023-04-01T11:02:57;13.20;99.90
4596;DHT22;2310;49.978;8.742;2023-04-01T11:07:36;13.40;99.90
4596;DHT22;2310;49.978;8.742;2023-04-01T11:11:47;13.20;99.90
4596;DHT22;2310;49.978;8.742;2023-04-01T11:20:34;14.30;99.90
4596;DHT22;2310;49.978;8.742;2023-04-01T11:37:39;14.20;99.90
4596;DHT22;2310;49.978;8.742;2023-04-01T11:41:54;14.10;99.90
4596;DHT22;2310;49.978;8.742;2023-04-01T11:46:15;14.20;99.90
4596;DHT22;2310;49.978;8.742;2023-04-01T11:50:35;14.00;99.90
4596;DHT22;2310;49.978;8.742;2023-04-01T12:03:43;14.00;99.90
4596;DHT22;2310;49.978;8.742;2023-04-01T12:16:42;14.60;99.90
4596;DHT22;2310;49.978;8.742;2023-04-01T12:34:06;15.10;99.90
4596;DHT22;2310;49.978;8.742;2023-04-01T12:38:10;14.80;99.90
4596;DHT22;2310;49.978;8.742;2023-04-01T12:51:19;14.20;99.90
4596;DHT22;2310;49.978;8.742;2023-04-01T13:17:09;14.00;99.90
4596;DHT22;2310;49.978;8.742;2023-04-01T13:21:44;13.90;99.90
4596;DHT22;2310;49.978;8.742;2023-04-01T13:26:02;13.70;99.90
4596;DHT22;2310;49.978;8.742;2023-04-01T13:43:34;13.70;99.90
4596;DHT22;2310;49.978;8.742;2023-04-01T13:56:03;13.70;99.90
4596;DHT22;2310;49.978;8.742;2023-04-01T14:08:26;14.00;99.90
4596;DHT22;2310;49.978;8.742;2023-04-01T14:25:50;13.60;99.90
4596;DHT22;2310;49.978;8.742;2023-04-01T14:34:44;13.80;99.90
4596;DHT22;2310;49.978;8.742;2023-04-01T14:38:52;13.90;99.90
4596;DHT22;2310;49.978;8.742;2023-04-01T14:51:46;13.70;99.90
4596;DHT22;2310;49.978;8.742;2023-04-01T14:55:54;13.80;99.90
4596;DHT22;2310;49.978;8.742;2023-04-01T15:08:36;13.90;99.90
4596;DHT22;2310;49.978;8.742;2023-04-01T15:17:14;13.90;99.90
4596;DHT22;2310;49.978;8.742;2023-04-01T15:21:18;13.80;99.90
4596;DHT22;2310;49.978;8.742;2023-04-01T15:25:31;13.60;99.90
4596;DHT22;2310;49.978;8.742;2023-04-01T15:37:54;15.00;99.90
4596;DHT22;2310;49.978;8.742;2023-04-01T15:42:36;15.50;99.90
4596;DHT22;2310;49.978;8.742;2023-04-01T15:46:48;15.80;99.90
4596;DHT22;2310;49.978;8.742;2023-04-01T15:59:16;15.00;99.90
4596;DHT22;2310;49.978;8.742;2023-04-01T16:03:18;14.80;99.90
4596;DHT22;2310;49.978;8.742;2023-04-01T16:07:42;14.50;99.90
4596;DHT22;2310;49.978;8.742;2023-04-01T16:20:22;14.20;99.90
4596;DHT22;2310;49.978;8.742;2023-04-01T16:28:53;13.80;99.90
4596;DHT22;2310;49.978;8.742;2023-04-01T16:33:01;13.60;99.90
4596;DHT22;2310;49.978;8.742;2023-04-01T16:41:26;13.60;99.90
4596;DHT22;2310;49.978;8.742;2023-04-01T16:45:46;13.60;99.90
4596;DHT22;2310;49.978;8.742;2023-04-01T16:49:56;13.50;99.90
4596;DHT22;2310;49.978;8.742;2023-04-01T16:54:04;13.30;99.90
4596;DHT22;2310;49.978;8.742;2023-04-01T16:58:07;13.30;99.90
4596;DHT22;2310;49.978;8.742;2023-04-01T17:02:13;13.20;99.90
4596;DHT22;2310;49.978;8.742;2023-04-01T17:10:56;13.10;99.90
4596;DHT22;2310;49.978;8.742;2023-04-01T17:23:45;13.10;99.90
4596;DHT22;2310;49.978;8.742;2023-04-01T17:37:00;12.90;99.90
4596;DHT22;2310;49.978;8.742;2023-04-01T17:41:05;13.00;99.90
4596;DHT22;2310;49.978;8.742;2023-04-01T17:45:19;13.00;99.90
4596;DHT22;2310;49.978;8.742;2023-04-01T17:49:34;13.00;99.90
4596;DHT22;2310;49.978;8.742;2023-04-01T17:58:03;13.00;99.90
4596;DHT22;2310;49.978;8.742;2023-04-01T18:02:30;13.00;99.90
4596;DHT22;2310;49.978;8.742;2023-04-01T18:06:51;13.30;99.90
4596;DHT22;2310;49.978;8.742;2023-04-01T18:20:02;13.10;99.90
4596;DHT22;2310;49.978;8.742;2023-04-01T18:28:38;13.00;99.90
4596;DHT22;2310;49.978;8.742;2023-04-01T18:32:50;12.90;99.90
4596;DHT22;2310;49.978;8.742;2023-04-01T18:36:53;12.80;99.90
4596;DHT22;2310;49.978;8.742;2023-04-01T18:41:25;12.80;99.90
4596;DHT22;2310;49.978;8.742;2023-04-01T19:02:55;12.80;99.90
4596;DHT22;2310;49.978;8.742;2023-04-01T19:06:57;12.70;99.90
4596;DHT22;2310;49.978;8.742;2023-04-01T19:11:14;12.60;99.90
4596;DHT22;2310;49.978;8.742;2023-04-01T19:15:24;12.60;99.90
4596;DHT22;2310;49.978;8.742;2023-04-01T19:37:34;12.50;99.90
4596;DHT22;2310;49.978;8.742;2023-04-01T19:41:41;12.50;99.90
4596;DHT22;2310;49.978;8.742;2023-04-01T19:46:14;12.60;99.90
4596;DHT22;2310;49.978;8.742;2023-04-01T19:59:15;12.60;99.90
4596;DHT22;2310;49.978;8.742;2023-04-01T20:03:41;12.50;99.90
4596;DHT22;2310;49.978;8.742;2023-04-01T20:07:47;12.60;99.90
4596;DHT22;2310;49.978;8.742;2023-04-01T20:12:00;12.70;99.90
4596;DHT22;2310;49.978;8.742;2023-04-01T20:16:07;12.50;99.90
4596;DHT22;2310;49.978;8.742;2023-04-01T20:24:29;12.50;99.90
4596;DHT22;2310;49.978;8.742;2023-04-01T20:28:36;12.50;99.90
4596;DHT22;2310;49.978;8.742;2023-04-01T20:45:38;12.40;99.90
4596;DHT22;2310;49.978;8.742;2023-04-01T20:49:59;12.40;99.90
4596;DHT22;2310;49.978;8.742;2023-04-01T20:58:23;12.30;99.90
4596;DHT22;2310;49.978;8.742;2023-04-01T21:15:47;12.30;99.90
4596;DHT22;2310;49.978;8.742;2023-04-01T21:46:27;12.30;99.90
4596;DHT22;2310;49.978;8.742;2023-04-01T22:03:20;12.30;99.90
4596;DHT22;2310;49.978;8.742;2023-04-01T22:12:08;12.20;99.90
4596;DHT22;2310;49.978;8.742;2023-04-01T22:16:37;12.30;99.90
4596;DHT22;2310;49.978;8.742;2023-04-01T22:21:18;12.20;99.90
4596;DHT22;2310;49.978;8.742;2023-04-01T22:25:14;12.20;99.90
4596;DHT22;2310;49.978;8.742;2023-04-01T22:29:34;12.20;99.90
4596;DHT22;2310;49.978;8.742;2023-04-01T22:38:09;12.30;99.90
4596;DHT22;2310;49.978;8.742;2023-04-01T22:46:52;12.40;99.90
4596;DHT22;2310;49.978;8.742;2023-04-01T22:51:06;12.30;99.90
4596;DHT22;2310;49.978;8.742;2023-04-01T22:55:25;12.30;99.90
4596;DHT22;2310;49.978;8.742;2023-04-01T23:03:59;12.40;99.90
4596;DHT22;2310;49.978;8.742;2023-04-01T23:08:31;12.50;99.90
4596;DHT22;2310;49.978;8.742;2023-04-01T23:12:29;12.50;99.90
4596;DHT22;2310;49.978;8.742;2023-04-01T23:16:38;12.30;99.90
4596;DHT22;2310;49.978;8.742;2023-04-01T23:29:36;12.50;99.90
4596;DHT22;2310;49.978;8.742;2023-04-01T23:33:40;12.40;99.90
4596;DHT22;2310;49.978;8.742;2023-04-01T23:37:41;12.50;99.90
4596;DHT22;2310;49.978;8.742;2023-04-01T23:41:42;12.40;99.90
4596;DHT22;2310;49.978;8.742;2023-04-01T23:45:43;12.50;99.90
4596;DHT22;2310;49.978;8.742;2023-04-01T23:49:47;12.30;99.90
4596;DHT22;2310;49.978;8.742;2023-04-01T23:53:56;12.30;99.90
4596;DHT22;2310;49.978;8.742;2023-04-01T23:58:25;12.30;99.90
